createdAt,value
2022-11-20T00:00:10.444Z,8.8
2022-11-20T00:00:30.471Z,8.8
2022-11-20T00:00:50.490Z,8.8
2022-11-20T00:01:10.514Z,9.2
2022-11-20T00:01:30.544Z,9.2
2022-11-20T00:01:50.652Z,9.2
2022-11-20T00:02:10.644Z,9.2
2022-11-20T00:02:30.613Z,9.2
2022-11-20T00:02:50.657Z,9.2
2022-11-20T00:03:10.713Z,9.2
2022-11-20T00:03:30.773Z,9.2
2022-11-20T00:03:50.821Z,9.2
2022-11-20T00:04:10.856Z,9.2
2022-11-20T00:04:30.985Z,9.2
2022-11-20T00:04:50.945Z,9.2
2022-11-20T00:05:10.978Z,9.2
2022-11-20T00:05:31.005Z,9.2
2022-11-20T00:05:51.049Z,9.2
2022-11-20T00:06:11.067Z,9.2
2022-11-20T00:06:31.102Z,9.2
2022-11-20T00:06:51.140Z,9.2
2022-11-20T00:07:11.260Z,9.2
2022-11-20T00:07:31.257Z,9.2
2022-11-20T00:07:51.239Z,9.2
2022-11-20T00:08:11.231Z,9.2
2022-11-20T00:08:31.274Z,9.2
2022-11-20T00:08:51.275Z,9.2
2022-11-20T00:09:11.308Z,9.2
2022-11-20T00:09:31.336Z,9.2
2022-11-20T00:09:51.356Z,9.2
2022-11-20T00:10:11.388Z,9.2
2022-11-20T00:10:31.417Z,9.2
2022-11-20T00:10:51.457Z,9.2
2022-11-20T00:11:15.512Z,12.2
2022-11-20T00:11:31.528Z,12.2
2022-11-20T00:11:51.569Z,12.2
2022-11-20T00:12:11.615Z,12.2
2022-11-20T00:12:31.649Z,12.2
2022-11-20T00:12:51.679Z,12.2
2022-11-20T00:13:11.767Z,12.2
2022-11-20T00:13:31.746Z,12.2
2022-11-20T00:13:51.772Z,12.2
2022-11-20T00:14:11.776Z,12.2
2022-11-20T00:14:31.808Z,12.2
2022-11-20T00:14:51.844Z,12.2
2022-11-20T00:15:11.864Z,12.2
2022-11-20T00:15:31.894Z,12.2
2022-11-20T00:15:51.916Z,12.2
2022-11-20T00:16:11.944Z,12.2
2022-11-20T00:16:31.987Z,12.2
2022-11-20T00:16:52.011Z,12.2
2022-11-20T00:17:12.051Z,12.2
2022-11-20T00:17:32.125Z,12.2
2022-11-20T00:17:52.142Z,12.2
2022-11-20T00:18:12.210Z,12.2
2022-11-20T00:18:32.230Z,12.2
2022-11-20T00:18:52.279Z,12.2
2022-11-20T00:19:12.323Z,12.2
2022-11-20T00:19:32.400Z,12.2
2022-11-20T00:19:52.427Z,12.2
2022-11-20T00:20:12.456Z,12.2
2022-11-20T00:20:32.478Z,12.2
2022-11-20T00:20:52.512Z,12.2
2022-11-20T00:21:12.543Z,12.2
2022-11-20T00:21:32.582Z,10
2022-11-20T00:21:52.630Z,10
2022-11-20T00:22:12.690Z,10
2022-11-20T00:22:32.729Z,10
2022-11-20T00:22:52.778Z,10
2022-11-20T00:23:12.807Z,10
2022-11-20T00:23:32.838Z,10
2022-11-20T00:23:54.917Z,10
2022-11-20T00:24:12.912Z,10
2022-11-20T00:24:32.926Z,10
2022-11-20T00:24:52.950Z,10
2022-11-20T00:25:13.047Z,10
2022-11-20T00:25:33.066Z,10
2022-11-20T00:25:53.091Z,10
2022-11-20T00:26:13.112Z,10
2022-11-20T00:26:33.144Z,10
2022-11-20T00:26:53.160Z,10
2022-11-20T00:27:13.224Z,10
2022-11-20T00:27:33.263Z,10
2022-11-20T00:27:53.282Z,10
2022-11-20T00:28:13.328Z,10
2022-11-20T00:28:33.357Z,10
2022-11-20T00:28:53.375Z,10
2022-11-20T00:29:13.410Z,10
2022-11-20T00:29:33.525Z,10
2022-11-20T00:29:53.514Z,10
2022-11-20T00:30:15.017Z,10
2022-11-20T00:30:33.547Z,10
2022-11-20T00:30:53.593Z,10
2022-11-20T00:31:13.653Z,11.1
2022-11-20T00:31:33.690Z,11.1
2022-11-20T00:31:53.725Z,11.1
2022-11-20T00:32:13.731Z,11.1
2022-11-20T00:32:33.760Z,11.1
2022-11-20T00:32:53.815Z,11.1
2022-11-20T00:33:13.839Z,11.1
2022-11-20T00:33:33.919Z,11.1
2022-11-20T00:33:53.927Z,11.1
2022-11-20T00:34:13.957Z,11.1
2022-11-20T00:34:34.079Z,11.1
2022-11-20T00:34:54.052Z,11.1
2022-11-20T00:35:14.073Z,11.1
2022-11-20T00:35:34.114Z,11.1
2022-11-20T00:35:54.149Z,11.1
2022-11-20T00:36:14.184Z,11.1
2022-11-20T00:36:34.218Z,11.1
2022-11-20T00:36:54.222Z,11.1
2022-11-20T00:37:14.258Z,11.1
2022-11-20T00:37:34.299Z,11.1
2022-11-20T00:37:54.319Z,11.1
2022-11-20T00:38:14.352Z,11.1
2022-11-20T00:38:34.379Z,11.1
2022-11-20T00:38:54.473Z,11.1
2022-11-20T00:39:14.442Z,11.1
2022-11-20T00:39:34.473Z,11.1
2022-11-20T00:39:54.494Z,11.1
2022-11-20T00:40:14.512Z,11.1
2022-11-20T00:40:34.561Z,11.1
2022-11-20T00:40:54.824Z,11.1
2022-11-20T00:41:14.613Z,11.1
2022-11-20T00:41:34.657Z,10.4
2022-11-20T00:41:54.688Z,10.4
2022-11-20T00:42:14.705Z,10.4
2022-11-20T00:42:34.756Z,10.4
2022-11-20T00:42:54.782Z,10.4
2022-11-20T00:43:14.809Z,10.4
2022-11-20T00:43:34.861Z,10.4
2022-11-20T00:43:54.988Z,10.4
2022-11-20T00:44:14.947Z,10.4
2022-11-20T00:44:34.996Z,10.4
2022-11-20T00:44:55.082Z,10.4
2022-11-20T00:45:15.043Z,10.4
2022-11-20T00:45:35.101Z,10.4
2022-11-20T00:45:55.139Z,10.4
2022-11-20T00:46:15.168Z,10.4
2022-11-20T00:46:35.184Z,10.4
2022-11-20T00:46:55.214Z,10.4
2022-11-20T00:47:15.241Z,10.4
2022-11-20T00:47:35.284Z,10.4
2022-11-20T00:47:55.485Z,10.4
2022-11-20T00:48:15.333Z,10.4
2022-11-20T00:48:35.392Z,10.4
2022-11-20T00:48:55.409Z,10.4
2022-11-20T00:49:15.441Z,10.4
2022-11-20T00:49:35.481Z,10.4
2022-11-20T00:49:55.509Z,10.4
2022-11-20T00:50:15.542Z,10.4
2022-11-20T00:50:35.590Z,10.4
2022-11-20T00:50:55.611Z,10.4
2022-11-20T00:51:15.649Z,10.4
2022-11-20T00:51:35.678Z,9.3
2022-11-20T00:51:55.755Z,9.3
2022-11-20T00:52:15.722Z,9.3
2022-11-20T00:52:35.769Z,9.3
2022-11-20T00:52:55.816Z,9.3
2022-11-20T00:53:15.845Z,9.3
2022-11-20T00:53:35.878Z,9.3
2022-11-20T00:53:55.908Z,9.3
2022-11-20T00:54:15.929Z,9.3
2022-11-20T00:54:35.966Z,9.3
2022-11-20T00:54:56.002Z,9.3
2022-11-20T00:55:16.040Z,9.3
2022-11-20T00:55:36.070Z,9.3
2022-11-20T00:55:56.100Z,9.3
2022-11-20T00:56:16.122Z,9.3
2022-11-20T00:56:36.149Z,9.3
2022-11-20T00:56:56.205Z,9.3
2022-11-20T00:57:16.235Z,9.3
2022-11-20T00:57:36.267Z,9.3
2022-11-20T00:57:56.283Z,9.3
2022-11-20T00:58:16.313Z,9.3
2022-11-20T00:58:36.338Z,9.3
2022-11-20T00:58:56.363Z,9.3
2022-11-20T00:59:16.397Z,9.3
2022-11-20T00:59:36.420Z,9.3
2022-11-20T00:59:56.497Z,9.3
2022-11-20T01:00:16.521Z,9.3
2022-11-20T01:00:36.534Z,9.3
2022-11-20T01:00:56.609Z,9.3
2022-11-20T01:01:16.769Z,9.3
2022-11-20T01:01:36.722Z,9.3
2022-11-20T01:01:56.675Z,11.3
2022-11-20T01:02:16.700Z,11.3
2022-11-20T01:02:36.742Z,11.3
2022-11-20T01:02:56.781Z,11.3
2022-11-20T01:03:16.831Z,11.3
2022-11-20T01:03:36.866Z,11.3
2022-11-20T01:03:56.897Z,11.3
2022-11-20T01:04:16.940Z,11.3
2022-11-20T01:04:37.056Z,11.3
2022-11-20T01:04:57.017Z,11.3
2022-11-20T01:05:17.061Z,11.3
2022-11-20T01:05:37.117Z,11.3
2022-11-20T01:05:57.198Z,11.3
2022-11-20T01:06:17.249Z,11.3
2022-11-20T01:06:37.282Z,11.3
2022-11-20T01:06:57.410Z,11.3
2022-11-20T01:07:17.381Z,11.3
2022-11-20T01:07:37.481Z,11.3
2022-11-20T01:07:57.416Z,11.3
2022-11-20T01:08:17.442Z,11.3
2022-11-20T01:08:37.460Z,11.3
2022-11-20T01:08:57.486Z,11.3
2022-11-20T01:09:17.504Z,11.3
2022-11-20T01:09:37.537Z,11.3
2022-11-20T01:09:57.562Z,11.3
2022-11-20T01:10:17.595Z,11.3
2022-11-20T01:10:37.617Z,11.3
2022-11-20T01:10:57.653Z,11.3
2022-11-20T01:11:17.682Z,11.3
2022-11-20T01:11:37.719Z,9.3
2022-11-20T01:11:57.761Z,9.3
2022-11-20T01:12:17.814Z,9.3
2022-11-20T01:12:37.861Z,9.3
2022-11-20T01:12:57.916Z,9.3
2022-11-20T01:13:22.842Z,9.3
2022-11-20T01:13:37.963Z,9.3
2022-11-20T01:13:57.999Z,9.3
2022-11-20T01:14:18.017Z,9.3
2022-11-20T01:14:38.048Z,9.3
2022-11-20T01:14:58.166Z,9.3
2022-11-20T01:15:18.110Z,9.3
2022-11-20T01:15:38.140Z,9.3
2022-11-20T01:15:58.191Z,9.3
2022-11-20T01:16:18.213Z,9.3
2022-11-20T01:16:38.238Z,9.3
2022-11-20T01:16:58.270Z,9.3
2022-11-20T01:17:18.299Z,9.3
2022-11-20T01:17:38.328Z,9.3
2022-11-20T01:17:58.381Z,9.3
2022-11-20T01:18:18.421Z,9.3
2022-11-20T01:18:38.484Z,9.3
2022-11-20T01:18:58.517Z,9.3
2022-11-20T01:19:18.641Z,9.3
2022-11-20T01:19:38.603Z,9.3
2022-11-20T01:19:58.611Z,9.3
2022-11-20T01:20:18.630Z,9.3
2022-11-20T01:20:38.656Z,9.3
2022-11-20T01:20:58.691Z,9.3
2022-11-20T01:21:18.719Z,9.3
2022-11-20T01:21:38.752Z,9.3
2022-11-20T01:21:58.811Z,9.1
2022-11-20T01:22:18.861Z,9.1
2022-11-20T01:22:38.890Z,9.1
2022-11-20T01:22:58.903Z,9.1
2022-11-20T01:23:18.935Z,9.1
2022-11-20T01:23:38.963Z,9.1
2022-11-20T01:23:58.984Z,9.1
2022-11-20T01:24:19.043Z,9.1
2022-11-20T01:24:39.055Z,9.1
2022-11-20T01:24:59.083Z,9.1
2022-11-20T01:25:19.114Z,9.1
2022-11-20T01:25:39.136Z,9.1
2022-11-20T01:25:59.169Z,9.1
2022-11-20T01:26:19.199Z,9.1
2022-11-20T01:26:39.243Z,9.1
2022-11-20T01:26:59.256Z,9.1
2022-11-20T01:27:19.306Z,9.1
2022-11-20T01:27:39.343Z,9.1
2022-11-20T01:27:59.366Z,9.1
2022-11-20T01:28:19.408Z,9.1
2022-11-20T01:28:39.435Z,9.1
2022-11-20T01:28:59.504Z,9.1
2022-11-20T01:29:19.933Z,9.1
2022-11-20T01:29:39.582Z,9.1
2022-11-20T01:30:01.265Z,9.1
2022-11-20T01:30:19.682Z,9.1
2022-11-20T01:30:39.707Z,9.1
2022-11-20T01:30:59.753Z,9.1
2022-11-20T01:31:19.801Z,9.1
2022-11-20T01:31:39.835Z,9.1
2022-11-20T01:31:59.873Z,8.6
2022-11-20T01:32:19.892Z,8.6
2022-11-20T01:32:39.947Z,8.6
2022-11-20T01:32:59.998Z,8.6
2022-11-20T01:33:20.078Z,8.6
2022-11-20T01:33:40.107Z,8.6
2022-11-20T01:34:00.126Z,8.6
2022-11-20T01:34:20.298Z,8.6
2022-11-20T01:34:40.226Z,8.6
2022-11-20T01:35:00.244Z,8.6
2022-11-20T01:35:20.285Z,8.6
2022-11-20T01:35:40.378Z,8.6
2022-11-20T01:36:00.405Z,8.6
2022-11-20T01:36:20.459Z,8.6
2022-11-20T01:36:40.498Z,8.6
2022-11-20T01:37:00.544Z,8.6
2022-11-20T01:37:20.582Z,8.6
2022-11-20T01:37:40.623Z,8.6
2022-11-20T01:38:00.644Z,8.6
2022-11-20T01:38:20.689Z,8.6
2022-11-20T01:38:40.694Z,8.6
2022-11-20T01:39:00.754Z,8.6
2022-11-20T01:39:21.141Z,8.6
2022-11-20T01:39:40.814Z,8.6
2022-11-20T01:40:00.893Z,8.6
2022-11-20T01:40:20.904Z,8.6
2022-11-20T01:40:40.949Z,8.6
2022-11-20T01:41:00.977Z,8.6
2022-11-20T01:41:21.007Z,8.6
2022-11-20T01:41:41.029Z,8.6
2022-11-20T01:42:03.488Z,8.6
2022-11-20T01:42:21.114Z,8.2
2022-11-20T01:42:41.174Z,8.2
2022-11-20T01:43:01.226Z,8.2
2022-11-20T01:43:21.256Z,8.2
2022-11-20T01:43:41.283Z,8.2
2022-11-20T01:44:01.334Z,8.2
2022-11-20T01:44:21.372Z,8.2
2022-11-20T01:44:41.388Z,8.2
2022-11-20T01:45:01.420Z,8.2
2022-11-20T01:45:21.440Z,8.2
2022-11-20T01:45:41.468Z,8.2
2022-11-20T01:46:01.497Z,8.2
2022-11-20T01:46:21.515Z,8.2
2022-11-20T01:46:41.578Z,8.2
2022-11-20T01:47:01.592Z,8.2
2022-11-20T01:47:21.616Z,8.2
2022-11-20T01:47:41.641Z,8.2
2022-11-20T01:48:01.673Z,8.2
2022-11-20T01:48:21.733Z,8.2
2022-11-20T01:48:41.751Z,8.2
2022-11-20T01:49:01.781Z,8.2
2022-11-20T01:49:22.028Z,8.2
2022-11-20T01:49:41.835Z,8.2
2022-11-20T01:50:01.856Z,8.2
2022-11-20T01:50:21.907Z,8.2
2022-11-20T01:50:41.924Z,8.2
2022-11-20T01:51:01.970Z,8.2
2022-11-20T01:51:21.997Z,8.2
2022-11-20T01:51:42.029Z,8.2
2022-11-20T01:52:02.070Z,6.3
2022-11-20T01:52:22.105Z,6.3
2022-11-20T01:52:42.133Z,6.3
2022-11-20T01:53:02.167Z,6.3
2022-11-20T01:53:22.180Z,6.3
2022-11-20T01:53:42.203Z,6.3
2022-11-20T01:54:02.251Z,6.3
2022-11-20T01:54:22.279Z,6.3
2022-11-20T01:54:42.338Z,6.3
2022-11-20T01:55:02.386Z,6.3
2022-11-20T01:55:22.423Z,6.3
2022-11-20T01:55:42.466Z,6.3
2022-11-20T01:56:02.497Z,6.3
2022-11-20T01:56:22.521Z,6.3
2022-11-20T01:56:42.560Z,6.3
2022-11-20T01:57:02.576Z,6.3
2022-11-20T01:57:22.620Z,6.3
2022-11-20T01:57:42.650Z,6.3
2022-11-20T01:58:02.707Z,6.3
2022-11-20T01:58:22.716Z,6.3
2022-11-20T01:58:42.755Z,6.3
2022-11-20T01:59:02.782Z,6.3
2022-11-20T01:59:23.322Z,6.3
2022-11-20T01:59:42.837Z,6.3
2022-11-20T02:00:02.870Z,6.3
2022-11-20T02:00:22.916Z,6.3
2022-11-20T02:00:42.933Z,6.3
2022-11-20T02:01:03.016Z,6.3
2022-11-20T02:01:23.078Z,6.3
2022-11-20T02:01:43.041Z,6.3
2022-11-20T02:02:03.045Z,6.3
2022-11-20T02:02:23.121Z,8.9
2022-11-20T02:02:43.154Z,8.9
2022-11-20T02:03:03.203Z,8.9
2022-11-20T02:03:23.240Z,8.9
2022-11-20T02:03:43.281Z,8.9
2022-11-20T02:04:03.327Z,8.9
2022-11-20T02:04:23.371Z,8.9
2022-11-20T02:04:43.384Z,8.9
2022-11-20T02:05:03.415Z,8.9
2022-11-20T02:05:23.473Z,8.9
2022-11-20T02:05:43.532Z,8.9
2022-11-20T02:06:03.558Z,8.9
2022-11-20T02:06:23.598Z,8.9
2022-11-20T02:06:43.629Z,8.9
2022-11-20T02:07:03.724Z,8.9
2022-11-20T02:07:23.752Z,8.9
2022-11-20T02:07:43.715Z,8.9
2022-11-20T02:08:03.760Z,8.9
2022-11-20T02:08:23.791Z,8.9
2022-11-20T02:08:43.826Z,8.9
2022-11-20T02:09:03.853Z,8.9
2022-11-20T02:09:24.121Z,8.9
2022-11-20T02:09:43.902Z,8.9
2022-11-20T02:10:03.926Z,8.9
2022-11-20T02:10:23.961Z,8.9
2022-11-20T02:10:44.000Z,8.9
2022-11-20T02:11:04.026Z,8.9
2022-11-20T02:11:24.052Z,8.9
2022-11-20T02:11:44.085Z,8.9
2022-11-20T02:12:04.144Z,8.9
2022-11-20T02:12:24.176Z,7.6
2022-11-20T02:12:44.208Z,7.6
2022-11-20T02:13:04.229Z,7.6
2022-11-20T02:13:24.256Z,7.6
2022-11-20T02:13:44.291Z,7.6
2022-11-20T02:14:04.314Z,7.6
2022-11-20T02:14:24.343Z,7.6
2022-11-20T02:14:44.375Z,7.6
2022-11-20T02:15:04.422Z,7.6
2022-11-20T02:15:29.010Z,7.6
2022-11-20T02:15:44.495Z,7.6
2022-11-20T02:16:04.550Z,7.6
2022-11-20T02:16:24.592Z,7.6
2022-11-20T02:16:44.653Z,7.6
2022-11-20T02:17:04.677Z,7.6
2022-11-20T02:17:24.709Z,7.6
2022-11-20T02:17:44.739Z,7.6
2022-11-20T02:18:04.771Z,7.6
2022-11-20T02:18:24.811Z,7.6
2022-11-20T02:18:44.831Z,7.6
2022-11-20T02:19:04.898Z,7.6
2022-11-20T02:19:24.929Z,7.6
2022-11-20T02:19:44.989Z,7.6
2022-11-20T02:20:05.023Z,7.6
2022-11-20T02:20:25.067Z,7.6
2022-11-20T02:20:45.111Z,7.6
2022-11-20T02:21:05.145Z,7.6
2022-11-20T02:21:25.207Z,7.6
2022-11-20T02:21:45.241Z,7.6
2022-11-20T02:22:05.311Z,7.6
2022-11-20T02:22:25.349Z,7.6
2022-11-20T02:22:45.385Z,8.6
2022-11-20T02:23:05.429Z,8.6
2022-11-20T02:23:25.462Z,8.6
2022-11-20T02:23:45.487Z,8.6
2022-11-20T02:24:05.520Z,8.6
2022-11-20T02:24:25.540Z,8.6
2022-11-20T02:24:45.595Z,8.6
2022-11-20T02:25:05.632Z,8.6
2022-11-20T02:25:25.659Z,8.6
2022-11-20T02:25:45.695Z,8.6
2022-11-20T02:26:05.731Z,8.6
2022-11-20T02:26:25.766Z,8.6
2022-11-20T02:26:45.812Z,8.6
2022-11-20T02:27:05.845Z,8.6
2022-11-20T02:27:25.884Z,8.6
2022-11-20T02:27:45.911Z,8.6
2022-11-20T02:28:05.928Z,8.6
2022-11-20T02:28:25.950Z,8.6
2022-11-20T02:28:45.981Z,8.6
2022-11-20T02:29:06.033Z,8.6
2022-11-20T02:29:26.086Z,8.6
2022-11-20T02:29:46.108Z,8.6
2022-11-20T02:30:06.145Z,8.6
2022-11-20T02:30:26.180Z,8.6
2022-11-20T02:30:46.211Z,8.6
2022-11-20T02:31:06.243Z,8.6
2022-11-20T02:31:26.266Z,8.6
2022-11-20T02:31:46.295Z,8.6
2022-11-20T02:32:06.336Z,8.6
2022-11-20T02:32:26.353Z,8.7
2022-11-20T02:32:46.383Z,8.7
2022-11-20T02:33:06.427Z,8.7
2022-11-20T02:33:26.464Z,8.7
2022-11-20T02:33:46.494Z,8.7
2022-11-20T02:34:06.539Z,8.7
2022-11-20T02:34:26.561Z,8.7
2022-11-20T02:34:46.580Z,8.7
2022-11-20T02:35:06.614Z,8.7
2022-11-20T02:35:26.624Z,8.7
2022-11-20T02:35:46.682Z,8.7
2022-11-20T02:36:06.731Z,8.7
2022-11-20T02:36:26.760Z,8.7
2022-11-20T02:36:46.796Z,8.7
2022-11-20T02:37:06.839Z,8.7
2022-11-20T02:37:26.859Z,8.7
2022-11-20T02:37:46.893Z,8.7
2022-11-20T02:38:06.916Z,8.7
2022-11-20T02:38:26.934Z,8.7
2022-11-20T02:38:46.980Z,8.7
2022-11-20T02:39:07.040Z,8.7
2022-11-20T02:39:27.080Z,8.7
2022-11-20T02:39:47.101Z,8.7
2022-11-20T02:40:07.130Z,8.7
2022-11-20T02:40:27.189Z,8.7
2022-11-20T02:40:51.414Z,8.7
2022-11-20T02:41:07.242Z,8.7
2022-11-20T02:41:27.274Z,8.7
2022-11-20T02:41:47.319Z,8.7
2022-11-20T02:42:07.345Z,8.7
2022-11-20T02:42:27.370Z,8.7
2022-11-20T02:42:47.418Z,9.1
2022-11-20T02:43:07.435Z,9.1
2022-11-20T02:43:27.467Z,9.1
2022-11-20T02:43:47.503Z,9.1
2022-11-20T02:44:07.530Z,9.1
2022-11-20T02:44:27.573Z,9.1
2022-11-20T02:44:47.590Z,9.1
2022-11-20T02:45:07.638Z,9.1
2022-11-20T02:45:27.670Z,9.1
2022-11-20T02:45:47.753Z,9.1
2022-11-20T02:46:07.820Z,9.1
2022-11-20T02:46:27.851Z,9.1
2022-11-20T02:46:47.894Z,9.1
2022-11-20T02:47:07.926Z,9.1
2022-11-20T02:47:27.942Z,9.1
2022-11-20T02:47:48.002Z,9.1
2022-11-20T02:48:08.035Z,9.1
2022-11-20T02:48:30.222Z,9.1
2022-11-20T02:48:48.118Z,9.1
2022-11-20T02:49:08.155Z,9.1
2022-11-20T02:49:28.220Z,9.1
2022-11-20T02:49:48.253Z,9.1
2022-11-20T02:50:08.290Z,9.1
2022-11-20T02:50:28.310Z,9.1
2022-11-20T02:50:48.355Z,9.1
2022-11-20T02:51:08.419Z,9.1
2022-11-20T02:51:28.446Z,9.1
2022-11-20T02:51:48.472Z,9.1
2022-11-20T02:52:08.499Z,9.1
2022-11-20T02:52:28.525Z,9.1
2022-11-20T02:52:48.578Z,9.2
2022-11-20T02:53:08.638Z,9.2
2022-11-20T02:53:28.659Z,9.2
2022-11-20T02:53:48.713Z,9.2
2022-11-20T02:54:08.738Z,9.2
2022-11-20T02:54:28.773Z,9.2
2022-11-20T02:54:48.785Z,9.2
2022-11-20T02:55:08.847Z,9.2
2022-11-20T02:55:28.892Z,9.2
2022-11-20T02:55:48.960Z,9.2
2022-11-20T02:56:08.994Z,9.2
2022-11-20T02:56:29.019Z,9.2
2022-11-20T02:56:49.064Z,9.2
2022-11-20T02:57:09.131Z,9.2
2022-11-20T02:57:29.154Z,9.2
2022-11-20T02:57:49.186Z,9.2
2022-11-20T02:58:09.221Z,9.2
2022-11-20T02:58:29.258Z,9.2
2022-11-20T02:58:49.310Z,9.2
2022-11-20T02:59:09.343Z,9.2
2022-11-20T02:59:29.365Z,9.2
2022-11-20T02:59:49.412Z,9.2
2022-11-20T03:00:09.456Z,9.2
2022-11-20T03:00:29.513Z,9.2
2022-11-20T03:00:49.531Z,9.2
2022-11-20T03:01:09.618Z,9.2
2022-11-20T03:01:29.765Z,9.2
2022-11-20T03:01:49.653Z,9.2
2022-11-20T03:02:09.682Z,9.2
2022-11-20T03:02:29.711Z,9.2
2022-11-20T03:02:49.745Z,9.2
2022-11-20T03:03:09.773Z,10.9
2022-11-20T03:03:29.826Z,10.9
2022-11-20T03:03:49.869Z,10.9
2022-11-20T03:04:09.906Z,10.9
2022-11-20T03:04:29.933Z,10.9
2022-11-20T03:04:49.953Z,10.9
2022-11-20T03:05:09.980Z,10.9
2022-11-20T03:05:29.999Z,10.9
2022-11-20T03:05:51.036Z,10.9
2022-11-20T03:07:05.276Z,10.9
2022-11-20T03:07:10.245Z,10.9
2022-11-20T03:07:30.294Z,10.9
2022-11-20T03:07:50.305Z,10.9
2022-11-20T03:08:10.303Z,10.9
2022-11-20T03:08:30.351Z,10.9
2022-11-20T03:08:50.397Z,10.9
2022-11-20T03:09:10.444Z,10.9
2022-11-20T03:09:30.469Z,10.9
2022-11-20T03:09:50.507Z,10.9
2022-11-20T03:10:10.539Z,10.9
2022-11-20T03:10:30.579Z,10.9
2022-11-20T03:11:50.725Z,10.9
2022-11-20T03:12:10.752Z,10.9
2022-11-20T03:12:30.751Z,10.9
2022-11-20T03:12:50.790Z,9.6
2022-11-20T03:13:10.803Z,9.6
2022-11-20T03:13:30.844Z,9.6
2022-11-20T03:13:50.867Z,9.6
2022-11-20T03:14:10.891Z,9.6
2022-11-20T03:14:30.946Z,9.6
2022-11-20T03:14:53.270Z,9.6
2022-11-20T03:15:11.039Z,9.6
2022-11-20T03:15:31.066Z,9.6
2022-11-20T03:15:51.096Z,9.6
2022-11-20T03:16:11.131Z,9.6
2022-11-20T03:16:31.166Z,9.6
2022-11-20T03:16:51.180Z,9.6
2022-11-20T03:17:11.210Z,9.6
2022-11-20T03:17:31.252Z,9.6
2022-11-20T03:17:51.291Z,9.6
2022-11-20T03:18:11.315Z,9.6
2022-11-20T03:18:31.363Z,9.6
2022-11-20T03:18:51.399Z,9.6
2022-11-20T03:19:11.431Z,9.6
2022-11-20T03:19:31.460Z,9.6
2022-11-20T03:19:51.491Z,9.6
2022-11-20T03:20:11.524Z,9.6
2022-11-20T03:20:31.586Z,9.6
2022-11-20T03:20:51.596Z,9.6
2022-11-20T03:21:11.649Z,9.6
2022-11-20T03:21:31.672Z,9.6
2022-11-20T03:21:51.717Z,9.6
2022-11-20T03:22:11.790Z,9.6
2022-11-20T03:22:31.827Z,9.6
2022-11-20T03:22:51.866Z,9.6
2022-11-20T03:23:11.912Z,9.4
2022-11-20T03:23:31.934Z,9.4
2022-11-20T03:23:51.991Z,9.4
2022-11-20T03:24:12.016Z,9.4
2022-11-20T03:24:32.059Z,9.4
2022-11-20T03:24:52.104Z,9.4
2022-11-20T03:25:12.126Z,9.4
2022-11-20T03:25:32.159Z,9.4
2022-11-20T03:25:52.202Z,9.4
2022-11-20T03:26:12.263Z,9.4
2022-11-20T03:26:32.320Z,9.4
2022-11-20T03:26:52.335Z,9.4
2022-11-20T03:27:12.372Z,9.4
2022-11-20T03:27:32.388Z,9.4
2022-11-20T03:27:52.423Z,9.4
2022-11-20T03:28:12.454Z,9.4
2022-11-20T03:28:32.470Z,9.4
2022-11-20T03:28:52.506Z,9.4
2022-11-20T03:29:12.541Z,9.4
2022-11-20T03:29:32.576Z,9.4
2022-11-20T03:29:52.620Z,9.4
2022-11-20T03:30:12.680Z,9.4
2022-11-20T03:30:32.715Z,9.4
2022-11-20T03:30:52.751Z,9.4
2022-11-20T03:31:12.779Z,9.4
2022-11-20T03:31:32.803Z,9.4
2022-11-20T03:31:52.866Z,9.4
2022-11-20T03:32:12.884Z,9.4
2022-11-20T03:32:32.916Z,9.4
2022-11-20T03:32:52.949Z,9.4
2022-11-20T03:33:12.969Z,9.2
2022-11-20T03:33:33.003Z,9.2
2022-11-20T03:33:53.028Z,9.2
2022-11-20T03:34:13.040Z,9.2
2022-11-20T03:34:33.097Z,9.2
2022-11-20T03:34:53.113Z,9.2
2022-11-20T03:35:13.135Z,9.2
2022-11-20T03:35:33.180Z,9.2
2022-11-20T03:35:53.191Z,9.2
2022-11-20T03:36:13.241Z,9.2
2022-11-20T03:36:33.267Z,9.2
2022-11-20T03:36:53.305Z,9.2
2022-11-20T03:37:13.348Z,9.2
2022-11-20T03:37:33.379Z,9.2
2022-11-20T03:37:53.405Z,9.2
2022-11-20T03:38:13.450Z,9.2
2022-11-20T03:38:33.478Z,9.2
2022-11-20T03:38:53.520Z,9.2
2022-11-20T03:39:13.574Z,9.2
2022-11-20T03:39:33.600Z,9.2
2022-11-20T03:39:53.639Z,9.2
2022-11-20T03:40:13.673Z,9.2
2022-11-20T03:40:33.733Z,9.2
2022-11-20T03:40:53.756Z,9.2
2022-11-20T03:41:13.783Z,9.2
2022-11-20T03:41:33.814Z,9.2
2022-11-20T03:41:53.835Z,9.2
2022-11-20T03:42:13.924Z,9.2
2022-11-20T03:42:33.948Z,9.2
2022-11-20T03:42:53.996Z,9.2
2022-11-20T03:43:14.015Z,9.2
2022-11-20T03:43:34.144Z,9.7
2022-11-20T03:43:54.122Z,9.7
2022-11-20T03:44:14.155Z,9.7
2022-11-20T03:44:34.203Z,9.7
2022-11-20T03:44:54.240Z,9.7
2022-11-20T03:45:14.323Z,9.7
2022-11-20T03:45:34.307Z,9.7
2022-11-20T03:45:54.346Z,9.7
2022-11-20T03:46:14.413Z,9.7
2022-11-20T03:46:34.433Z,9.7
2022-11-20T03:46:54.453Z,9.7
2022-11-20T03:47:14.515Z,9.7
2022-11-20T03:47:34.542Z,9.7
2022-11-20T03:47:54.595Z,9.7
2022-11-20T03:48:14.596Z,9.7
2022-11-20T03:48:34.623Z,9.7
2022-11-20T03:48:54.660Z,9.7
2022-11-20T03:49:14.691Z,9.7
2022-11-20T03:49:34.730Z,9.7
2022-11-20T03:49:54.742Z,9.7
2022-11-20T03:50:14.786Z,9.7
2022-11-20T03:50:34.809Z,9.7
2022-11-20T03:50:54.836Z,9.7
2022-11-20T03:51:14.872Z,9.7
2022-11-20T03:51:34.906Z,9.7
2022-11-20T03:51:54.956Z,9.7
2022-11-20T03:52:14.988Z,9.7
2022-11-20T03:52:35.022Z,9.7
2022-11-20T03:52:55.151Z,9.7
2022-11-20T03:53:15.087Z,10.7
2022-11-20T03:53:35.133Z,10.7
2022-11-20T03:53:55.173Z,10.7
2022-11-20T03:54:15.208Z,10.7
2022-11-20T03:54:35.242Z,10.7
2022-11-20T03:54:55.284Z,10.7
2022-11-20T03:55:15.317Z,10.7
2022-11-20T03:55:35.345Z,10.7
2022-11-20T03:55:55.363Z,10.7
2022-11-20T03:56:15.397Z,10.7
2022-11-20T03:56:35.417Z,10.7
2022-11-20T03:56:55.440Z,10.7
2022-11-20T03:57:15.480Z,10.7
2022-11-20T03:57:35.494Z,10.7
2022-11-20T03:57:55.525Z,10.7
2022-11-20T03:58:15.552Z,10.7
2022-11-20T03:58:35.581Z,10.7
2022-11-20T03:58:55.607Z,10.7
2022-11-20T03:59:15.630Z,10.7
2022-11-20T03:59:35.689Z,10.7
2022-11-20T03:59:55.756Z,10.7
2022-11-20T04:00:15.739Z,10.7
2022-11-20T04:00:35.816Z,10.7
2022-11-20T04:00:55.845Z,10.7
2022-11-20T04:01:15.944Z,10.7
2022-11-20T04:01:36.046Z,10.7
2022-11-20T04:01:55.975Z,10.7
2022-11-20T04:02:16.025Z,10.7
2022-11-20T04:02:36.029Z,10.7
2022-11-20T04:02:56.046Z,10.7
2022-11-20T04:03:16.109Z,10.7
2022-11-20T04:03:36.159Z,10.5
2022-11-20T04:03:56.225Z,10.5
2022-11-20T04:04:16.287Z,10.5
2022-11-20T04:04:36.357Z,10.5
2022-11-20T04:04:56.379Z,10.5
2022-11-20T04:05:16.472Z,10.5
2022-11-20T04:05:36.434Z,10.5
2022-11-20T04:05:56.451Z,10.5
2022-11-20T04:06:16.496Z,10.5
2022-11-20T04:06:36.519Z,10.5
2022-11-20T04:06:56.666Z,10.5
2022-11-20T04:07:16.776Z,10.5
2022-11-20T04:07:36.650Z,10.5
2022-11-20T04:07:56.610Z,10.5
2022-11-20T04:08:16.624Z,10.5
2022-11-20T04:08:36.645Z,10.5
2022-11-20T04:08:56.698Z,10.5
2022-11-20T04:09:16.719Z,10.5
2022-11-20T04:09:36.766Z,10.5
2022-11-20T04:09:56.815Z,10.5
2022-11-20T04:10:16.863Z,10.5
2022-11-20T04:10:36.878Z,10.5
2022-11-20T04:10:56.927Z,10.5
2022-11-20T04:11:16.972Z,10.5
2022-11-20T04:11:37.016Z,10.5
2022-11-20T04:11:57.062Z,10.5
2022-11-20T04:12:17.080Z,10.5
2022-11-20T04:12:37.103Z,10.5
2022-11-20T04:12:57.141Z,10.5
2022-11-20T04:13:17.146Z,10.5
2022-11-20T04:13:37.187Z,8.8
2022-11-20T04:13:57.221Z,8.8
2022-11-20T04:14:17.241Z,8.8
2022-11-20T04:14:37.255Z,8.8
2022-11-20T04:14:57.288Z,8.8
2022-11-20T04:15:17.308Z,8.8
2022-11-20T04:15:38.579Z,8.8
2022-11-20T04:15:57.398Z,8.8
2022-11-20T04:16:17.436Z,8.8
2022-11-20T04:16:37.453Z,8.8
2022-11-20T04:16:57.508Z,8.8
2022-11-20T04:17:17.530Z,8.8
2022-11-20T04:17:37.554Z,8.8
2022-11-20T04:17:57.611Z,8.8
2022-11-20T04:18:17.682Z,8.8
2022-11-20T04:18:37.719Z,8.8
2022-11-20T04:18:57.786Z,8.8
2022-11-20T04:19:17.884Z,8.8
2022-11-20T04:19:37.828Z,8.8
2022-11-20T04:19:57.857Z,8.8
2022-11-20T04:20:17.869Z,8.8
2022-11-20T04:20:37.891Z,8.8
2022-11-20T04:20:57.928Z,8.8
2022-11-20T04:21:17.961Z,8.8
2022-11-20T04:21:38.021Z,8.8
2022-11-20T04:21:58.080Z,8.8
2022-11-20T04:22:18.131Z,8.8
2022-11-20T04:22:38.148Z,8.8
2022-11-20T04:22:58.183Z,8.8
2022-11-20T04:23:18.204Z,8.8
2022-11-20T04:23:38.241Z,8.8
2022-11-20T04:23:58.264Z,9.9
2022-11-20T04:24:18.301Z,9.9
2022-11-20T04:24:38.356Z,9.9
2022-11-20T04:24:58.387Z,9.9
2022-11-20T04:25:18.418Z,9.9
2022-11-20T04:25:38.447Z,9.9
2022-11-20T04:25:58.475Z,9.9
2022-11-20T04:26:18.501Z,9.9
2022-11-20T04:26:38.532Z,9.9
2022-11-20T04:26:58.571Z,9.9
2022-11-20T04:27:18.636Z,9.9
2022-11-20T04:27:38.645Z,9.9
2022-11-20T04:27:58.674Z,9.9
2022-11-20T04:28:18.701Z,9.9
2022-11-20T04:28:38.750Z,9.9
2022-11-20T04:28:58.751Z,9.9
2022-11-20T04:29:19.125Z,9.9
2022-11-20T04:29:38.805Z,9.9
2022-11-20T04:29:58.845Z,9.9
2022-11-20T04:30:18.892Z,9.9
2022-11-20T04:30:38.911Z,9.9
2022-11-20T04:30:58.953Z,9.9
2022-11-20T04:31:19.993Z,9.9
2022-11-20T04:31:39.024Z,9.9
2022-11-20T04:31:59.069Z,9.9
2022-11-20T04:32:19.093Z,9.9
2022-11-20T04:32:39.134Z,9.9
2022-11-20T04:32:59.209Z,9.9
2022-11-20T04:33:19.271Z,9.9
2022-11-20T04:33:39.318Z,7.8
2022-11-20T04:33:59.358Z,7.8
2022-11-20T04:34:19.415Z,7.8
2022-11-20T04:34:39.465Z,7.8
2022-11-20T04:34:59.514Z,7.8
2022-11-20T04:35:19.540Z,7.8